Terminal Aerodrome Forecast
Issued by NWS Grand Forks, ND

Home | Current Version | Previous Version | Text Only | Print | Product List | Glossary Off
Versions: 1 2 3 4 5 6 7 8 9 10 11 12 13 14 15 16 17 18 19 20 21 22 23 24

000
FTUS43 KFGF 191600 AAB
TAFGFK
TAF AMD
KGFK 191630Z 1917/2012 22011KT P6SM BKN080
      TEMPO 1917/1918 -SHRA
     FM192100 25013KT P6SM SCT120
     FM200000 30015G23KT P6SM BKN120=

USA.gov is the U.S. government's official web portal to all federal, state and local government web resources and services.